MSC Maeva — H9TF — position and weather

sailwx.info

Track history (hours):
 
Tides and Currents Weather Stations Pressure Air Temp Water Temp Dewpoint Dewpoint Depression Visibility Wind Speed Wind Dir Waves Ship Positions

MSC Maeva

Last reported at 2014-Sep-29 09:04 UTC. Time now 2014-Sep-30 17:56 UTC.
Position N 32°53' E 034°53'.

Type: Ship (hazmat cat A). MMSI: 371851000.

Date/timePositionNaut miles runAvg speedWind from/ knotsBaromVisibWave heightAir tempDewpointWater temp
2014-Sep-29 09:04N 32°53' E 034°53'611.5
2014-Sep-29 08:34N 32°54' E 034°46'  
2014-Sep-24 03:11N 35°60' W 005°15'1117.8
2014-Sep-24 02:33N 35°57' W 005°28'  
2014-Sep-21 19:34N 35°55' W 024°26'1717.4
2014-Sep-21 18:34N 35°55' W 024°47'1717.3
2014-Sep-21 17:33N 35°55' W 025°09'1717.3
2014-Sep-21 16:34N 35°56' W 025°30'1817.5
2014-Sep-21 15:33N 35°56' W 025°52'1817.3
2014-Sep-21 14:33N 35°56' W 026°13'1717.5
2014-Sep-21 13:33N 35°55' W 026°35'3617.6
2014-Sep-21 11:31N 35°56' W 027°19'1717.6
2014-Sep-21 10:33N 35°56' W 027°40'  
Track history (hours):
 
Tides and Currents Weather Stations Pressure Air Temp Water Temp Dewpoint Dewpoint Depression Visibility Wind Speed Wind Dir Waves Ship Positions

MSC Maeva

Last reported at 2014-Sep-29 09:04 UTC. Time now 2014-Sep-30 17:56 UTC.
Position N 32°53' E 034°53'.

Type: Ship (hazmat cat A). MMSI: 371851000.

Date/timePositionNaut miles runAvg speedWind from/ knotsBaromVisibWave heightAir tempDewpointWater temp
2014-Sep-29 09:04N 32°53' E 034°53'611.5
2014-Sep-29 08:34N 32°54' E 034°46'  
2014-Sep-24 03:11N 35°60' W 005°15'1117.8
2014-Sep-24 02:33N 35°57' W 005°28'  
2014-Sep-21 19:34N 35°55' W 024°26'1717.4
2014-Sep-21 18:34N 35°55' W 024°47'1717.3
2014-Sep-21 17:33N 35°55' W 025°09'1717.3
2014-Sep-21 16:34N 35°56' W 025°30'1817.5
2014-Sep-21 15:33N 35°56' W 025°52'1817.3
2014-Sep-21 14:33N 35°56' W 026°13'1717.5
2014-Sep-21 13:33N 35°55' W 026°35'3617.6
2014-Sep-21 11:31N 35°56' W 027°19'1717.6
2014-Sep-21 10:33N 35°56' W 027°40'  

Dump ship's entire track history